Lakeside, Arizona
Current Conditions -  °F | °C
As of 11:15 AM on Monday 24 Nov 2014 (Local Time) from KSOW Reporting Station
Clear Clear  
Wind Chill: 29°   Ceiling: Unl
Heat Index: 37°   Visibility: 10mi
Dew Point: -2°   Wind: 14mph
Humidity: 19%   Direction: 340°NNW
Pressure: 30.28"   Gusts: NA
Location:  34.15°N, 109.98°W
Report Text: KSOW 241815Z AUTO 34012KT 10SM CLR 03/M19 A3028 RMK AO2
Loading
Personal Weather Stations






























Interactive Weather Map New forecast layout! Learn more

10-Day Weather Forecast

Advertisements
Track Severe Weather on mobile